Mona, UT (84645)

18:55 MST le 27 février 2015 (GMT -0700)
Elberta | Change Station
CLOSE
Current Station
Stations météorologiques personnelles
Location: Elberta, UT
Altitude: 4741 ft
Stations météo à proximité

Alt. 4741 ft 39.94 °N, 111.96 °W | Updated 4 minutes ago

Nuageux
Nuageux
40.6 ° F
Paraît 41 ° F
N
2.9
Vent Variable Vent de Ouest

Aujourd'hui
Haut(e) -- | Bas -- ° F
--% Risque de précip.
Hier
Haut(e) -- | Bas -- ° F
Precip. -- pouce
7:03 AM 6:17 PM
Lune gibbeuse croissante, 73% visible
Pression 29.72 pouce
Visibilité 15.0 Miles terrestres
Nuages Nuages épars 6500 ft
Nuageux 11000 ft
Refroidissement éolien 41 ° F
Point de rosée 34 ° F
Humidité 78%
Précipitations 0.02 pouce
Profondeur de la couche neigeuse Non disponible.
UV 0 sur 12
Pollen 2.90 sur 12
Qualité de l'air Non disponible.
Flu Activity Non disponible.
METAR KPVU 272353Z VRB04KT 15SM SCT065 BKN110 04/M02 A2972

More Conditions Fewer Conditions

Pression 29.72 pouce
Visibilité 15.0 Miles terrestres
Nuages Nuages épars 6500 ft
Nuageux 11000 ft
Refroidissement éolien 41 ° F
Point de rosée 34 ° F
Humidité 78%
Précipitations 0.02 pouce
Profondeur de la couche neigeuse Non disponible.
UV 0 sur 12
Pollen 2.90 sur 12
Qualité de l'air Non disponible.
Flu Activity Non disponible.
METAR KPVU 272353Z VRB04KT 15SM SCT065 BKN110 04/M02 A2972

More Conditions Fewer Conditions

10-Day Weather Forecast

Almanac

Astronomie

Feb. 27, 2015 Lever Coucher
Temps réel
Crépuscule civil
Crépuscule nautique
Crépuscule astronomique
Lune
Durée de lumière visible
Longueur du jour
Tomorrow will be .
, % of the Moon is Illuminated

Extrêmes aujourd'hui

State Highs State Lows

Community

WunderPhotos

Upload Photos

1,800,924 Photos téléchargées !

WunderBlogs® & News

Nearby

Qualité de l'air

  Qualité de l'air Indice de la qualité de l'air Polluant
Not available.

Épaisseur de neige

Station Depth Altitude

Activité sismique

Ville Distance Mag. Time & Date
Minimum magnitude displayed is 2.5.

Températures des eaux côtières

Lieu Température

Stations météo à proximité